sensor_id;sensor_type;location;lat;lon;timestamp;P1;durP1;ratioP1;P2;durP2;ratioP2
58272;SDS011;44075;42.436;18.514;2022-08-07T00:01:58;8.50;;;4.32;;
58272;SDS011;44075;42.436;18.514;2022-08-07T00:04:24;9.43;;;4.43;;
58272;SDS011;44075;42.436;18.514;2022-08-07T00:06:50;9.00;;;3.75;;
58272;SDS011;44075;42.436;18.514;2022-08-07T00:09:16;7.25;;;3.92;;
58272;SDS011;44075;42.436;18.514;2022-08-07T00:11:43;6.95;;;4.25;;
58272;SDS011;44075;42.436;18.514;2022-08-07T00:14:09;7.40;;;4.45;;
58272;SDS011;44075;42.436;18.514;2022-08-07T00:16:35;7.72;;;4.28;;
58272;SDS011;44075;42.436;18.514;2022-08-07T00:19:01;7.18;;;3.92;;
58272;SDS011;44075;42.436;18.514;2022-08-07T00:21:27;8.00;;;4.38;;
58272;SDS011;44075;42.436;18.514;2022-08-07T00:24:01;13.20;;;4.37;;
58272;SDS011;44075;42.436;18.514;2022-08-07T00:26:27;8.18;;;4.57;;
58272;SDS011;44075;42.436;18.514;2022-08-07T00:28:53;9.57;;;4.10;;
58272;SDS011;44075;42.436;18.514;2022-08-07T00:31:19;7.45;;;4.47;;
58272;SDS011;44075;42.436;18.514;2022-08-07T00:33:45;7.50;;;3.95;;
58272;SDS011;44075;42.436;18.514;2022-08-07T00:36:11;7.35;;;3.83;;
58272;SDS011;44075;42.436;18.514;2022-08-07T00:38:37;8.18;;;3.80;;
58272;SDS011;44075;42.436;18.514;2022-08-07T00:41:04;7.22;;;3.88;;
58272;SDS011;44075;42.436;18.514;2022-08-07T00:43:31;6.85;;;3.80;;
58272;SDS011;44075;42.436;18.514;2022-08-07T00:45:57;6.68;;;4.03;;
58272;SDS011;44075;42.436;18.514;2022-08-07T00:48:24;7.15;;;3.95;;
58272;SDS011;44075;42.436;18.514;2022-08-07T00:50:50;6.57;;;4.30;;
58272;SDS011;44075;42.436;18.514;2022-08-07T00:53:16;7.10;;;4.20;;
58272;SDS011;44075;42.436;18.514;2022-08-07T00:55:42;6.30;;;4.22;;
58272;SDS011;44075;42.436;18.514;2022-08-07T00:58:08;6.47;;;4.10;;
58272;SDS011;44075;42.436;18.514;2022-08-07T01:00:34;7.65;;;4.72;;
58272;SDS011;44075;42.436;18.514;2022-08-07T01:03:01;8.65;;;4.20;;
58272;SDS011;44075;42.436;18.514;2022-08-07T01:05:27;6.90;;;4.50;;
58272;SDS011;44075;42.436;18.514;2022-08-07T01:07:54;7.45;;;4.53;;
58272;SDS011;44075;42.436;18.514;2022-08-07T01:10:20;7.80;;;4.40;;
58272;SDS011;44075;42.436;18.514;2022-08-07T01:12:46;7.05;;;4.40;;
58272;SDS011;44075;42.436;18.514;2022-08-07T01:15:12;6.70;;;4.13;;
58272;SDS011;44075;42.436;18.514;2022-08-07T01:17:39;7.95;;;4.50;;
58272;SDS011;44075;42.436;18.514;2022-08-07T01:20:11;8.43;;;4.30;;
58272;SDS011;44075;42.436;18.514;2022-08-07T01:22:39;6.95;;;4.50;;
58272;SDS011;44075;42.436;18.514;2022-08-07T01:25:05;6.93;;;4.30;;
58272;SDS011;44075;42.436;18.514;2022-08-07T01:27:32;7.43;;;4.13;;
58272;SDS011;44075;42.436;18.514;2022-08-07T01:29:58;8.15;;;4.10;;
58272;SDS011;44075;42.436;18.514;2022-08-07T01:32:24;6.97;;;3.58;;
58272;SDS011;44075;42.436;18.514;2022-08-07T01:34:51;8.30;;;4.22;;
58272;SDS011;44075;42.436;18.514;2022-08-07T01:37:17;7.95;;;3.90;;
58272;SDS011;44075;42.436;18.514;2022-08-07T01:39:44;7.30;;;3.70;;
58272;SDS011;44075;42.436;18.514;2022-08-07T01:42:11;6.47;;;4.05;;
58272;SDS011;44075;42.436;18.514;2022-08-07T01:44:38;9.32;;;4.85;;
58272;SDS011;44075;42.436;18.514;2022-08-07T01:47:04;7.00;;;4.22;;
58272;SDS011;44075;42.436;18.514;2022-08-07T01:49:30;6.75;;;4.25;;
58272;SDS011;44075;42.436;18.514;2022-08-07T01:51:57;7.40;;;3.85;;
58272;SDS011;44075;42.436;18.514;2022-08-07T01:54:24;6.85;;;3.70;;
58272;SDS011;44075;42.436;18.514;2022-08-07T01:56:53;7.40;;;3.88;;
58272;SDS011;44075;42.436;18.514;2022-08-07T01:59:27;7.10;;;3.70;;
58272;SDS011;44075;42.436;18.514;2022-08-07T02:02:37;6.70;;;3.37;;
58272;SDS011;44075;42.436;18.514;2022-08-07T02:04:55;7.57;;;4.00;;
58272;SDS011;44075;42.436;18.514;2022-08-07T02:07:23;8.35;;;3.90;;
58272;SDS011;44075;42.436;18.514;2022-08-07T02:09:51;8.85;;;3.80;;
58272;SDS011;44075;42.436;18.514;2022-08-07T02:12:20;6.80;;;3.92;;
58272;SDS011;44075;42.436;18.514;2022-08-07T02:14:53;9.02;;;4.03;;
58272;SDS011;44075;42.436;18.514;2022-08-07T02:17:19;8.02;;;4.18;;
58272;SDS011;44075;42.436;18.514;2022-08-07T02:19:46;7.22;;;3.50;;
58272;SDS011;44075;42.436;18.514;2022-08-07T02:22:14;6.38;;;3.90;;
58272;SDS011;44075;42.436;18.514;2022-08-07T02:24:44;7.90;;;4.55;;
58272;SDS011;44075;42.436;18.514;2022-08-07T02:27:11;8.65;;;4.68;;
58272;SDS011;44075;42.436;18.514;2022-08-07T02:29:38;6.78;;;3.92;;
58272;SDS011;44075;42.436;18.514;2022-08-07T02:32:08;6.18;;;3.90;;
58272;SDS011;44075;42.436;18.514;2022-08-07T02:34:36;6.97;;;3.78;;
58272;SDS011;44075;42.436;18.514;2022-08-07T02:37:02;7.78;;;3.72;;
58272;SDS011;44075;42.436;18.514;2022-08-07T02:39:30;7.65;;;3.70;;
58272;SDS011;44075;42.436;18.514;2022-08-07T02:41:57;6.38;;;3.83;;
58272;SDS011;44075;42.436;18.514;2022-08-07T02:44:24;7.50;;;3.70;;
58272;SDS011;44075;42.436;18.514;2022-08-07T02:46:56;8.38;;;3.80;;
58272;SDS011;44075;42.436;18.514;2022-08-07T02:49:23;6.05;;;3.80;;
58272;SDS011;44075;42.436;18.514;2022-08-07T02:51:49;7.00;;;4.03;;
58272;SDS011;44075;42.436;18.514;2022-08-07T02:54:16;6.32;;;3.72;;
58272;SDS011;44075;42.436;18.514;2022-08-07T02:56:42;10.45;;;4.03;;
58272;SDS011;44075;42.436;18.514;2022-08-07T02:59:11;7.72;;;3.90;;
58272;SDS011;44075;42.436;18.514;2022-08-07T03:01:39;6.57;;;3.67;;
58272;SDS011;44075;42.436;18.514;2022-08-07T03:04:06;6.97;;;4.15;;
58272;SDS011;44075;42.436;18.514;2022-08-07T03:06:32;6.60;;;4.20;;
58272;SDS011;44075;42.436;18.514;2022-08-07T03:09:08;8.10;;;4.00;;
58272;SDS011;44075;42.436;18.514;2022-08-07T03:11:34;8.02;;;3.53;;
58272;SDS011;44075;42.436;18.514;2022-08-07T03:14:02;6.53;;;3.63;;
58272;SDS011;44075;42.436;18.514;2022-08-07T03:16:29;8.68;;;4.50;;
58272;SDS011;44075;42.436;18.514;2022-08-07T03:18:56;6.80;;;3.63;;
58272;SDS011;44075;42.436;18.514;2022-08-07T03:21:22;7.85;;;3.80;;
58272;SDS011;44075;42.436;18.514;2022-08-07T03:23:49;7.45;;;3.67;;
58272;SDS011;44075;42.436;18.514;2022-08-07T03:26:17;7.05;;;3.72;;
58272;SDS011;44075;42.436;18.514;2022-08-07T03:28:47;7.65;;;3.72;;
58272;SDS011;44075;42.436;18.514;2022-08-07T03:31:13;7.20;;;4.15;;
58272;SDS011;44075;42.436;18.514;2022-08-07T03:33:43;8.48;;;4.20;;
58272;SDS011;44075;42.436;18.514;2022-08-07T03:36:12;7.97;;;4.15;;
58272;SDS011;44075;42.436;18.514;2022-08-07T03:38:39;6.63;;;4.10;;
58272;SDS011;44075;42.436;18.514;2022-08-07T03:41:06;6.13;;;3.88;;
58272;SDS011;44075;42.436;18.514;2022-08-07T03:43:33;7.05;;;4.05;;
58272;SDS011;44075;42.436;18.514;2022-08-07T03:46:00;7.22;;;4.40;;
58272;SDS011;44075;42.436;18.514;2022-08-07T03:48:27;6.95;;;4.13;;
58272;SDS011;44075;42.436;18.514;2022-08-07T03:50:53;6.85;;;4.20;;
58272;SDS011;44075;42.436;18.514;2022-08-07T03:53:21;7.75;;;4.45;;
58272;SDS011;44075;42.436;18.514;2022-08-07T03:55:48;6.22;;;3.65;;
58272;SDS011;44075;42.436;18.514;2022-08-07T03:58:14;8.02;;;4.07;;
58272;SDS011;44075;42.436;18.514;2022-08-07T04:00:44;8.80;;;4.65;;
58272;SDS011;44075;42.436;18.514;2022-08-07T04:03:11;9.77;;;4.68;;
58272;SDS011;44075;42.436;18.514;2022-08-07T04:05:37;6.72;;;4.20;;
58272;SDS011;44075;42.436;18.514;2022-08-07T04:08:03;8.65;;;4.20;;
58272;SDS011;44075;42.436;18.514;2022-08-07T04:10:30;8.25;;;4.45;;
58272;SDS011;44075;42.436;18.514;2022-08-07T04:12:58;6.25;;;4.10;;
58272;SDS011;44075;42.436;18.514;2022-08-07T04:15:24;6.65;;;3.70;;
58272;SDS011;44075;42.436;18.514;2022-08-07T04:17:51;7.13;;;4.13;;
58272;SDS011;44075;42.436;18.514;2022-08-07T04:20:17;7.20;;;4.03;;
58272;SDS011;44075;42.436;18.514;2022-08-07T04:22:43;7.30;;;4.38;;
58272;SDS011;44075;42.436;18.514;2022-08-07T04:25:10;9.35;;;4.18;;
58272;SDS011;44075;42.436;18.514;2022-08-07T04:27:36;7.15;;;4.70;;
58272;SDS011;44075;42.436;18.514;2022-08-07T04:30:03;7.68;;;4.07;;
58272;SDS011;44075;42.436;18.514;2022-08-07T04:32:32;8.10;;;4.18;;
58272;SDS011;44075;42.436;18.514;2022-08-07T04:34:58;6.68;;;4.13;;
58272;SDS011;44075;42.436;18.514;2022-08-07T04:37:25;7.10;;;4.25;;
58272;SDS011;44075;42.436;18.514;2022-08-07T04:39:51;7.07;;;4.38;;
58272;SDS011;44075;42.436;18.514;2022-08-07T04:42:17;8.05;;;4.65;;
58272;SDS011;44075;42.436;18.514;2022-08-07T04:44:43;6.72;;;4.07;;
58272;SDS011;44075;42.436;18.514;2022-08-07T04:47:15;7.43;;;4.25;;
58272;SDS011;44075;42.436;18.514;2022-08-07T04:49:57;7.60;;;4.30;;
58272;SDS011;44075;42.436;18.514;2022-08-07T04:52:35;7.38;;;4.20;;
58272;SDS011;44075;42.436;18.514;2022-08-07T04:55:20;7.83;;;4.70;;
58272;SDS011;44075;42.436;18.514;2022-08-07T04:57:52;7.65;;;4.93;;
58272;SDS011;44075;42.436;18.514;2022-08-07T05:00:21;8.55;;;3.88;;
58272;SDS011;44075;42.436;18.514;2022-08-07T05:02:57;7.45;;;4.60;;
58272;SDS011;44075;42.436;18.514;2022-08-07T05:05:25;6.65;;;4.63;;
58272;SDS011;44075;42.436;18.514;2022-08-07T05:08:02;7.57;;;4.50;;
58272;SDS011;44075;42.436;18.514;2022-08-07T05:10:34;8.45;;;4.53;;
58272;SDS011;44075;42.436;18.514;2022-08-07T05:15:29;8.13;;;4.70;;
58272;SDS011;44075;42.436;18.514;2022-08-07T05:18:00;7.32;;;4.53;;
58272;SDS011;44075;42.436;18.514;2022-08-07T05:20:31;7.65;;;4.65;;
58272;SDS011;44075;42.436;18.514;2022-08-07T05:22:59;7.38;;;4.50;;
58272;SDS011;44075;42.436;18.514;2022-08-07T05:25:26;8.68;;;4.60;;
58272;SDS011;44075;42.436;18.514;2022-08-07T05:27:53;9.48;;;4.22;;
58272;SDS011;44075;42.436;18.514;2022-08-07T05:30:19;6.70;;;4.20;;
58272;SDS011;44075;42.436;18.514;2022-08-07T05:32:46;8.95;;;4.43;;
58272;SDS011;44075;42.436;18.514;2022-08-07T05:35:13;9.10;;;4.57;;
58272;SDS011;44075;42.436;18.514;2022-08-07T05:37:39;8.18;;;4.30;;
58272;SDS011;44075;42.436;18.514;2022-08-07T05:40:06;7.05;;;4.88;;
58272;SDS011;44075;42.436;18.514;2022-08-07T05:42:33;7.57;;;5.18;;
58272;SDS011;44075;42.436;18.514;2022-08-07T05:45:03;7.55;;;4.07;;
58272;SDS011;44075;42.436;18.514;2022-08-07T05:47:30;7.72;;;4.47;;
58272;SDS011;44075;42.436;18.514;2022-08-07T05:49:56;8.32;;;4.95;;
58272;SDS011;44075;42.436;18.514;2022-08-07T05:52:23;7.55;;;4.43;;
58272;SDS011;44075;42.436;18.514;2022-08-07T05:54:49;8.80;;;4.10;;
58272;SDS011;44075;42.436;18.514;2022-08-07T05:57:15;7.13;;;4.63;;
58272;SDS011;44075;42.436;18.514;2022-08-07T05:59:41;6.47;;;4.57;;
58272;SDS011;44075;42.436;18.514;2022-08-07T06:02:12;7.47;;;4.45;;
58272;SDS011;44075;42.436;18.514;2022-08-07T06:04:44;7.43;;;5.10;;
58272;SDS011;44075;42.436;18.514;2022-08-07T06:07:11;8.75;;;5.07;;
58272;SDS011;44075;42.436;18.514;2022-08-07T06:09:41;7.80;;;4.88;;
58272;SDS011;44075;42.436;18.514;2022-08-07T06:12:07;9.15;;;5.25;;
58272;SDS011;44075;42.436;18.514;2022-08-07T06:14:33;7.55;;;4.65;;
58272;SDS011;44075;42.436;18.514;2022-08-07T06:17:02;8.25;;;4.80;;
58272;SDS011;44075;42.436;18.514;2022-08-07T06:19:28;8.15;;;4.60;;
58272;SDS011;44075;42.436;18.514;2022-08-07T06:21:57;7.90;;;4.32;;
58272;SDS011;44075;42.436;18.514;2022-08-07T06:24:27;6.47;;;4.35;;
58272;SDS011;44075;42.436;18.514;2022-08-07T06:26:54;8.45;;;4.63;;
58272;SDS011;44075;42.436;18.514;2022-08-07T06:29:25;7.15;;;5.07;;
58272;SDS011;44075;42.436;18.514;2022-08-07T06:31:51;8.27;;;5.07;;
58272;SDS011;44075;42.436;18.514;2022-08-07T06:34:26;8.15;;;5.13;;
58272;SDS011;44075;42.436;18.514;2022-08-07T06:36:52;8.32;;;4.50;;
58272;SDS011;44075;42.436;18.514;2022-08-07T06:39:19;9.88;;;6.05;;
58272;SDS011;44075;42.436;18.514;2022-08-07T06:41:56;9.98;;;4.93;;
58272;SDS011;44075;42.436;18.514;2022-08-07T06:44:22;7.53;;;4.75;;
58272;SDS011;44075;42.436;18.514;2022-08-07T06:46:49;6.55;;;5.25;;
58272;SDS011;44075;42.436;18.514;2022-08-07T06:49:16;7.43;;;5.30;;
58272;SDS011;44075;42.436;18.514;2022-08-07T06:51:42;8.02;;;5.00;;
58272;SDS011;44075;42.436;18.514;2022-08-07T06:54:08;9.27;;;5.40;;
58272;SDS011;44075;42.436;18.514;2022-08-07T06:56:38;8.27;;;4.93;;
58272;SDS011;44075;42.436;18.514;2022-08-07T06:59:12;9.07;;;5.13;;
58272;SDS011;44075;42.436;18.514;2022-08-07T07:01:38;7.47;;;4.65;;
58272;SDS011;44075;42.436;18.514;2022-08-07T07:04:06;7.55;;;5.43;;
58272;SDS011;44075;42.436;18.514;2022-08-07T07:06:32;7.88;;;4.93;;
58272;SDS011;44075;42.436;18.514;2022-08-07T07:14:33;9.70;;;5.30;;
58272;SDS011;44075;42.436;18.514;2022-08-07T07:17:02;7.22;;;5.57;;
58272;SDS011;44075;42.436;18.514;2022-08-07T07:19:30;8.23;;;5.68;;
58272;SDS011;44075;42.436;18.514;2022-08-07T07:21:57;8.43;;;5.78;;
58272;SDS011;44075;42.436;18.514;2022-08-07T07:24:23;9.57;;;5.40;;
58272;SDS011;44075;42.436;18.514;2022-08-07T07:26:50;7.88;;;5.25;;
58272;SDS011;44075;42.436;18.514;2022-08-07T07:29:22;8.38;;;5.53;;
58272;SDS011;44075;42.436;18.514;2022-08-07T07:31:52;7.22;;;5.38;;
58272;SDS011;44075;42.436;18.514;2022-08-07T07:34:23;8.15;;;5.63;;
58272;SDS011;44075;42.436;18.514;2022-08-07T07:36:51;8.02;;;6.60;;
58272;SDS011;44075;42.436;18.514;2022-08-07T07:39:23;8.45;;;6.47;;
58272;SDS011;44075;42.436;18.514;2022-08-07T07:41:51;8.50;;;6.03;;
58272;SDS011;44075;42.436;18.514;2022-08-07T07:44:17;10.57;;;5.97;;
58272;SDS011;44075;42.436;18.514;2022-08-07T07:46:44;10.30;;;6.50;;
58272;SDS011;44075;42.436;18.514;2022-08-07T07:49:12;9.40;;;6.30;;
58272;SDS011;44075;42.436;18.514;2022-08-07T07:51:40;11.70;;;6.07;;
58272;SDS011;44075;42.436;18.514;2022-08-07T07:54:07;8.77;;;5.93;;
58272;SDS011;44075;42.436;18.514;2022-08-07T07:56:36;7.85;;;6.30;;
58272;SDS011;44075;42.436;18.514;2022-08-07T07:59:06;8.75;;;6.70;;
58272;SDS011;44075;42.436;18.514;2022-08-07T08:01:33;11.43;;;6.68;;
58272;SDS011;44075;42.436;18.514;2022-08-07T08:04:01;8.52;;;5.70;;
58272;SDS011;44075;42.436;18.514;2022-08-07T08:06:28;8.85;;;6.75;;
58272;SDS011;44075;42.436;18.514;2022-08-07T08:08:57;8.88;;;6.07;;
58272;SDS011;44075;42.436;18.514;2022-08-07T08:11:25;8.00;;;6.30;;
58272;SDS011;44075;42.436;18.514;2022-08-07T08:13:51;9.18;;;6.03;;
58272;SDS011;44075;42.436;18.514;2022-08-07T08:16:17;8.50;;;5.95;;
58272;SDS011;44075;42.436;18.514;2022-08-07T08:18:44;9.48;;;6.68;;
58272;SDS011;44075;42.436;18.514;2022-08-07T08:21:15;10.25;;;6.80;;
58272;SDS011;44075;42.436;18.514;2022-08-07T08:24:04;9.27;;;6.75;;
58272;SDS011;44075;42.436;18.514;2022-08-07T08:26:49;10.52;;;6.45;;
58272;SDS011;44075;42.436;18.514;2022-08-07T08:29:30;8.88;;;6.15;;
58272;SDS011;44075;42.436;18.514;2022-08-07T08:31:57;10.55;;;7.80;;
58272;SDS011;44075;42.436;18.514;2022-08-07T08:34:26;11.68;;;6.88;;
58272;SDS011;44075;42.436;18.514;2022-08-07T08:39:44;9.95;;;7.38;;
58272;SDS011;44075;42.436;18.514;2022-08-07T08:42:12;9.07;;;7.70;;
58272;SDS011;44075;42.436;18.514;2022-08-07T08:44:46;10.27;;;7.22;;
58272;SDS011;44075;42.436;18.514;2022-08-07T08:47:16;9.70;;;7.22;;
58272;SDS011;44075;42.436;18.514;2022-08-07T08:50:30;8.57;;;7.00;;
58272;SDS011;44075;42.436;18.514;2022-08-07T08:52:38;8.35;;;6.88;;
58272;SDS011;44075;42.436;18.514;2022-08-07T08:55:29;10.98;;;7.32;;
58272;SDS011;44075;42.436;18.514;2022-08-07T09:00:51;9.10;;;7.63;;
58272;SDS011;44075;42.436;18.514;2022-08-07T09:11:42;10.23;;;7.88;;
58272;SDS011;44075;42.436;18.514;2022-08-07T09:14:11;9.13;;;7.35;;
58272;SDS011;44075;42.436;18.514;2022-08-07T09:16:44;8.45;;;7.55;;
58272;SDS011;44075;42.436;18.514;2022-08-07T09:19:21;12.43;;;11.18;;
58272;SDS011;44075;42.436;18.514;2022-08-07T09:27:29;8.82;;;7.00;;
58272;SDS011;44075;42.436;18.514;2022-08-07T09:29:56;13.52;;;11.80;;
58272;SDS011;44075;42.436;18.514;2022-08-07T09:37:44;24.65;;;21.92;;
58272;SDS011;44075;42.436;18.514;2022-08-07T09:40:21;47.20;;;42.38;;
58272;SDS011;44075;42.436;18.514;2022-08-07T09:45:36;18.92;;;16.45;;
58272;SDS011;44075;42.436;18.514;2022-08-07T09:53:31;18.90;;;16.77;;
58272;SDS011;44075;42.436;18.514;2022-08-07T10:04:16;13.32;;;10.02;;
58272;SDS011;44075;42.436;18.514;2022-08-07T10:06:30;18.17;;;16.38;;
58272;SDS011;44075;42.436;18.514;2022-08-07T10:17:02;8.70;;;7.80;;
58272;SDS011;44075;42.436;18.514;2022-08-07T10:19:37;9.55;;;7.57;;
58272;SDS011;44075;42.436;18.514;2022-08-07T10:24:48;10.07;;;7.97;;
58272;SDS011;44075;42.436;18.514;2022-08-07T10:35:14;12.43;;;7.65;;
58272;SDS011;44075;42.436;18.514;2022-08-07T10:40:33;9.90;;;6.30;;
58272;SDS011;44075;42.436;18.514;2022-08-07T10:45:30;8.18;;;7.03;;
58272;SDS011;44075;42.436;18.514;2022-08-07T10:48:18;8.10;;;7.30;;
58272;SDS011;44075;42.436;18.514;2022-08-07T10:50:53;10.07;;;7.95;;
58272;SDS011;44075;42.436;18.514;2022-08-07T11:09:21;9.82;;;7.97;;
58272;SDS011;44075;42.436;18.514;2022-08-07T11:12:03;11.68;;;10.18;;
58272;SDS011;44075;42.436;18.514;2022-08-07T11:14:35;10.07;;;7.20;;
58272;SDS011;44075;42.436;18.514;2022-08-07T11:17:10;23.70;;;21.17;;
58272;SDS011;44075;42.436;18.514;2022-08-07T11:19:46;8.80;;;6.85;;
58272;SDS011;44075;42.436;18.514;2022-08-07T11:22:16;16.88;;;15.15;;
58272;SDS011;44075;42.436;18.514;2022-08-07T11:24:50;14.07;;;12.65;;
58272;SDS011;44075;42.436;18.514;2022-08-07T11:30:05;14.77;;;12.65;;
58272;SDS011;44075;42.436;18.514;2022-08-07T11:35:02;13.85;;;11.30;;
58272;SDS011;44075;42.436;18.514;2022-08-07T11:37:38;12.15;;;10.43;;
58272;SDS011;44075;42.436;18.514;2022-08-07T11:48:13;9.55;;;8.10;;
58272;SDS011;44075;42.436;18.514;2022-08-07T11:53:41;8.75;;;7.07;;
58272;SDS011;44075;42.436;18.514;2022-08-07T12:01:43;9.73;;;6.68;;
58272;SDS011;44075;42.436;18.514;2022-08-07T12:07:05;9.00;;;6.93;;
58272;SDS011;44075;42.436;18.514;2022-08-07T12:09:35;9.05;;;6.75;;
58272;SDS011;44075;42.436;18.514;2022-08-07T12:12:11;8.90;;;6.30;;
58272;SDS011;44075;42.436;18.514;2022-08-07T12:14:43;9.73;;;8.15;;
58272;SDS011;44075;42.436;18.514;2022-08-07T12:17:11;11.52;;;8.05;;
58272;SDS011;44075;42.436;18.514;2022-08-07T12:22:18;11.70;;;7.22;;
58272;SDS011;44075;42.436;18.514;2022-08-07T12:24:56;8.02;;;6.32;;
58272;SDS011;44075;42.436;18.514;2022-08-07T12:27:59;8.88;;;6.90;;
58272;SDS011;44075;42.436;18.514;2022-08-07T12:30:28;7.80;;;6.47;;
58272;SDS011;44075;42.436;18.514;2022-08-07T12:33:00;10.07;;;7.57;;
58272;SDS011;44075;42.436;18.514;2022-08-07T12:35:30;8.50;;;6.80;;
58272;SDS011;44075;42.436;18.514;2022-08-07T12:37:56;11.32;;;7.43;;
58272;SDS011;44075;42.436;18.514;2022-08-07T12:40:25;8.88;;;6.60;;
58272;SDS011;44075;42.436;18.514;2022-08-07T12:42:52;21.10;;;18.67;;
58272;SDS011;44075;42.436;18.514;2022-08-07T12:45:25;9.63;;;7.40;;
58272;SDS011;44075;42.436;18.514;2022-08-07T12:50:33;8.43;;;6.10;;
58272;SDS011;44075;42.436;18.514;2022-08-07T12:53:06;7.78;;;6.20;;
58272;SDS011;44075;42.436;18.514;2022-08-07T12:55:45;7.78;;;5.95;;
58272;SDS011;44075;42.436;18.514;2022-08-07T12:58:15;8.23;;;6.00;;
58272;SDS011;44075;42.436;18.514;2022-08-07T13:05:58;24.27;;;20.55;;
58272;SDS011;44075;42.436;18.514;2022-08-07T13:08:34;8.47;;;7.53;;
58272;SDS011;44075;42.436;18.514;2022-08-07T13:21:45;9.13;;;5.43;;
58272;SDS011;44075;42.436;18.514;2022-08-07T13:24:24;8.52;;;5.70;;
58272;SDS011;44075;42.436;18.514;2022-08-07T13:26:56;9.15;;;5.53;;
58272;SDS011;44075;42.436;18.514;2022-08-07T13:30:00;6.65;;;5.20;;
58272;SDS011;44075;42.436;18.514;2022-08-07T13:32:19;7.53;;;5.80;;
58272;SDS011;44075;42.436;18.514;2022-08-07T13:40:30;7.07;;;5.50;;
58272;SDS011;44075;42.436;18.514;2022-08-07T13:43:00;8.80;;;6.05;;
58272;SDS011;44075;42.436;18.514;2022-08-07T13:45:27;7.63;;;5.47;;
58272;SDS011;44075;42.436;18.514;2022-08-07T13:47:54;7.45;;;5.68;;
58272;SDS011;44075;42.436;18.514;2022-08-07T13:50:24;11.48;;;6.00;;
58272;SDS011;44075;42.436;18.514;2022-08-07T13:52:51;7.47;;;5.90;;
58272;SDS011;44075;42.436;18.514;2022-08-07T13:55:18;8.82;;;5.30;;
58272;SDS011;44075;42.436;18.514;2022-08-07T13:57:46;8.27;;;5.43;;
58272;SDS011;44075;42.436;18.514;2022-08-07T14:00:14;9.75;;;5.40;;
58272;SDS011;44075;42.436;18.514;2022-08-07T14:02:41;7.38;;;5.45;;
58272;SDS011;44075;42.436;18.514;2022-08-07T14:05:13;7.03;;;5.57;;
58272;SDS011;44075;42.436;18.514;2022-08-07T14:07:44;7.80;;;5.70;;
58272;SDS011;44075;42.436;18.514;2022-08-07T14:10:10;7.05;;;5.32;;
58272;SDS011;44075;42.436;18.514;2022-08-07T14:15:05;7.45;;;5.90;;
58272;SDS011;44075;42.436;18.514;2022-08-07T14:17:35;9.23;;;5.60;;
58272;SDS011;44075;42.436;18.514;2022-08-07T14:20:07;8.52;;;5.90;;
58272;SDS011;44075;42.436;18.514;2022-08-07T14:22:34;7.97;;;6.53;;
58272;SDS011;44075;42.436;18.514;2022-08-07T14:25:06;7.50;;;6.28;;
58272;SDS011;44075;42.436;18.514;2022-08-07T14:27:34;11.63;;;6.55;;
58272;SDS011;44075;42.436;18.514;2022-08-07T14:30:03;8.57;;;6.65;;
58272;SDS011;44075;42.436;18.514;2022-08-07T14:32:29;9.70;;;7.22;;
58272;SDS011;44075;42.436;18.514;2022-08-07T14:34:56;8.48;;;7.28;;
58272;SDS011;44075;42.436;18.514;2022-08-07T14:37:25;7.80;;;6.68;;
58272;SDS011;44075;42.436;18.514;2022-08-07T14:39:51;7.80;;;6.70;;
58272;SDS011;44075;42.436;18.514;2022-08-07T14:42:21;7.47;;;6.45;;
58272;SDS011;44075;42.436;18.514;2022-08-07T14:44:51;7.45;;;6.35;;
58272;SDS011;44075;42.436;18.514;2022-08-07T14:47:18;9.30;;;6.80;;
58272;SDS011;44075;42.436;18.514;2022-08-07T14:49:44;8.93;;;6.18;;
58272;SDS011;44075;42.436;18.514;2022-08-07T14:52:11;8.45;;;6.43;;
58272;SDS011;44075;42.436;18.514;2022-08-07T14:54:38;8.88;;;6.65;;
58272;SDS011;44075;42.436;18.514;2022-08-07T14:57:08;8.35;;;6.95;;
58272;SDS011;44075;42.436;18.514;2022-08-07T14:59:35;10.13;;;6.85;;
58272;SDS011;44075;42.436;18.514;2022-08-07T15:02:11;8.40;;;6.65;;
58272;SDS011;44075;42.436;18.514;2022-08-07T15:04:38;11.85;;;6.80;;
58272;SDS011;44075;42.436;18.514;2022-08-07T15:07:04;7.75;;;5.82;;
58272;SDS011;44075;42.436;18.514;2022-08-07T15:09:32;9.15;;;6.70;;
58272;SDS011;44075;42.436;18.514;2022-08-07T15:12:04;7.30;;;6.50;;
58272;SDS011;44075;42.436;18.514;2022-08-07T15:14:31;8.32;;;6.93;;
58272;SDS011;44075;42.436;18.514;2022-08-07T15:17:00;11.38;;;7.28;;
58272;SDS011;44075;42.436;18.514;2022-08-07T15:19:28;8.40;;;6.47;;
58272;SDS011;44075;42.436;18.514;2022-08-07T15:21:56;9.48;;;7.40;;
58272;SDS011;44075;42.436;18.514;2022-08-07T15:24:24;11.48;;;9.40;;
58272;SDS011;44075;42.436;18.514;2022-08-07T15:26:51;9.13;;;7.13;;
58272;SDS011;44075;42.436;18.514;2022-08-07T15:29:20;13.80;;;10.43;;
58272;SDS011;44075;42.436;18.514;2022-08-07T15:31:47;45.78;;;40.47;;
58272;SDS011;44075;42.436;18.514;2022-08-07T15:34:15;87.72;;;76.63;;
58272;SDS011;44075;42.436;18.514;2022-08-07T15:36:42;55.10;;;44.47;;
58272;SDS011;44075;42.436;18.514;2022-08-07T15:39:09;43.38;;;38.45;;
58272;SDS011;44075;42.436;18.514;2022-08-07T15:44:45;224.77;;;200.30;;
58272;SDS011;44075;42.436;18.514;2022-08-07T15:47:12;212.70;;;189.57;;
58272;SDS011;44075;42.436;18.514;2022-08-07T15:49:39;81.43;;;72.75;;
58272;SDS011;44075;42.436;18.514;2022-08-07T15:52:07;112.18;;;101.35;;
58272;SDS011;44075;42.436;18.514;2022-08-07T15:54:35;124.28;;;112.18;;
58272;SDS011;44075;42.436;18.514;2022-08-07T15:57:03;113.18;;;101.82;;
58272;SDS011;44075;42.436;18.514;2022-08-07T15:59:29;125.90;;;113.43;;
58272;SDS011;44075;42.436;18.514;2022-08-07T16:01:58;158.13;;;142.30;;
58272;SDS011;44075;42.436;18.514;2022-08-07T16:04:30;223.15;;;201.13;;
58272;SDS011;44075;42.436;18.514;2022-08-07T16:06:59;342.65;;;306.95;;
58272;SDS011;44075;42.436;18.514;2022-08-07T16:09:35;261.63;;;234.65;;
58272;SDS011;44075;42.436;18.514;2022-08-07T16:12:08;185.82;;;166.73;;
58272;SDS011;44075;42.436;18.514;2022-08-07T16:20:00;11.68;;;9.25;;
58272;SDS011;44075;42.436;18.514;2022-08-07T16:28:06;13.38;;;11.25;;
58272;SDS011;44075;42.436;18.514;2022-08-07T16:30:26;14.38;;;10.52;;
58272;SDS011;44075;42.436;18.514;2022-08-07T16:33:07;11.90;;;7.35;;
58272;SDS011;44075;42.436;18.514;2022-08-07T16:35:37;9.82;;;7.68;;
58272;SDS011;44075;42.436;18.514;2022-08-07T16:38:15;13.75;;;7.68;;
58272;SDS011;44075;42.436;18.514;2022-08-07T16:43:33;12.45;;;7.40;;
58272;SDS011;44075;42.436;18.514;2022-08-07T16:46:17;8.68;;;7.18;;
58272;SDS011;44075;42.436;18.514;2022-08-07T16:56:31;10.38;;;8.18;;
58272;SDS011;44075;42.436;18.514;2022-08-07T17:01:36;10.68;;;9.57;;
58272;SDS011;44075;42.436;18.514;2022-08-07T17:06:52;11.68;;;9.35;;
58272;SDS011;44075;42.436;18.514;2022-08-07T17:11:56;10.35;;;9.25;;
58272;SDS011;44075;42.436;18.514;2022-08-07T17:17:01;15.10;;;11.90;;
58272;SDS011;44075;42.436;18.514;2022-08-07T17:19:39;16.98;;;13.00;;
58272;SDS011;44075;42.436;18.514;2022-08-07T17:22:18;17.17;;;13.10;;
58272;SDS011;44075;42.436;18.514;2022-08-07T17:25:06;19.48;;;13.80;;
58272;SDS011;44075;42.436;18.514;2022-08-07T17:27:46;20.75;;;13.65;;
58272;SDS011;44075;42.436;18.514;2022-08-07T17:30:15;14.80;;;11.98;;
58272;SDS011;44075;42.436;18.514;2022-08-07T17:35:09;15.35;;;12.40;;
58272;SDS011;44075;42.436;18.514;2022-08-07T17:37:57;14.82;;;13.25;;
58272;SDS011;44075;42.436;18.514;2022-08-07T17:43:11;15.75;;;12.68;;
58272;SDS011;44075;42.436;18.514;2022-08-07T17:45:40;19.05;;;13.32;;